sensor_id;sensor_type;location;lat;lon;timestamp;P1;durP1;ratioP1;P2;durP2;ratioP2
11522;SDS011;40093;43.224;27.910;2023-02-28T00:00:09;5.50;;;5.00;;
11522;SDS011;40093;43.224;27.910;2023-02-28T00:02:38;5.53;;;4.80;;
11522;SDS011;40093;43.224;27.910;2023-02-28T00:05:06;5.10;;;4.70;;
11522;SDS011;40093;43.224;27.910;2023-02-28T00:07:35;5.10;;;4.60;;
11522;SDS011;40093;43.224;27.910;2023-02-28T00:10:02;5.27;;;4.77;;
11522;SDS011;40093;43.224;27.910;2023-02-28T00:12:31;5.20;;;4.70;;
11522;SDS011;40093;43.224;27.910;2023-02-28T00:14:57;5.70;;;5.20;;
11522;SDS011;40093;43.224;27.910;2023-02-28T00:17:24;5.40;;;4.90;;
11522;SDS011;40093;43.224;27.910;2023-02-28T00:19:51;5.53;;;5.03;;
11522;SDS011;40093;43.224;27.910;2023-02-28T00:22:19;5.20;;;4.43;;
11522;SDS011;40093;43.224;27.910;2023-02-28T00:24:47;5.00;;;4.60;;
11522;SDS011;40093;43.224;27.910;2023-02-28T00:27:14;4.90;;;4.50;;
11522;SDS011;40093;43.224;27.910;2023-02-28T00:29:42;5.37;;;4.87;;
11522;SDS011;40093;43.224;27.910;2023-02-28T00:32:09;5.30;;;4.80;;
11522;SDS011;40093;43.224;27.910;2023-02-28T00:34:36;5.50;;;5.00;;
11522;SDS011;40093;43.224;27.910;2023-02-28T00:37:04;5.00;;;4.60;;
11522;SDS011;40093;43.224;27.910;2023-02-28T00:39:32;5.20;;;4.70;;
11522;SDS011;40093;43.224;27.910;2023-02-28T00:42:00;5.40;;;4.90;;
11522;SDS011;40093;43.224;27.910;2023-02-28T00:44:27;5.60;;;5.10;;
11522;SDS011;40093;43.224;27.910;2023-02-28T00:46:55;5.30;;;4.53;;
11522;SDS011;40093;43.224;27.910;2023-02-28T00:49:22;4.97;;;4.53;;
11522;SDS011;40093;43.224;27.910;2023-02-28T00:51:50;4.93;;;4.53;;
11522;SDS011;40093;43.224;27.910;2023-02-28T00:54:19;5.23;;;4.73;;
11522;SDS011;40093;43.224;27.910;2023-02-28T00:56:46;5.50;;;5.00;;
11522;SDS011;40093;43.224;27.910;2023-02-28T00:59:13;5.20;;;4.70;;
11522;SDS011;40093;43.224;27.910;2023-02-28T01:01:42;5.40;;;4.90;;
11522;SDS011;40093;43.224;27.910;2023-02-28T01:04:11;5.07;;;4.67;;
11522;SDS011;40093;43.224;27.910;2023-02-28T01:06:38;5.70;;;5.20;;
11522;SDS011;40093;43.224;27.910;2023-02-28T01:09:06;5.47;;;4.97;;
11522;SDS011;40093;43.224;27.910;2023-02-28T01:11:33;5.63;;;5.13;;
11522;SDS011;40093;43.224;27.910;2023-02-28T01:14:00;5.93;;;5.33;;
11522;SDS011;40093;43.224;27.910;2023-02-28T01:16:29;5.70;;;5.20;;
11522;SDS011;40093;43.224;27.910;2023-02-28T01:18:56;5.50;;;5.00;;
11522;SDS011;40093;43.224;27.910;2023-02-28T01:21:25;5.83;;;5.33;;
11522;SDS011;40093;43.224;27.910;2023-02-28T01:23:52;6.00;;;5.40;;
11522;SDS011;40093;43.224;27.910;2023-02-28T01:26:19;6.87;;;6.23;;
11522;SDS011;40093;43.224;27.910;2023-02-28T01:28:48;7.40;;;6.70;;
11522;SDS011;40093;43.224;27.910;2023-02-28T01:31:15;7.40;;;6.70;;
11522;SDS011;40093;43.224;27.910;2023-02-28T01:33:43;7.80;;;7.07;;
11522;SDS011;40093;43.224;27.910;2023-02-28T01:36:11;8.13;;;7.43;;
11522;SDS011;40093;43.224;27.910;2023-02-28T01:38:41;8.40;;;7.60;;
11522;SDS011;40093;43.224;27.910;2023-02-28T01:41:10;7.30;;;6.60;;
11522;SDS011;40093;43.224;27.910;2023-02-28T01:43:56;8.20;;;7.40;;
11522;SDS011;40093;43.224;27.910;2023-02-28T01:46:28;7.40;;;6.70;;
11522;SDS011;40093;43.224;27.910;2023-02-28T01:48:56;7.73;;;7.03;;
11522;SDS011;40093;43.224;27.910;2023-02-28T01:51:29;7.80;;;7.00;;
11522;SDS011;40093;43.224;27.910;2023-02-28T01:54:02;7.63;;;6.93;;
11522;SDS011;40093;43.224;27.910;2023-02-28T01:56:38;8.00;;;7.20;;
11522;SDS011;40093;43.224;27.910;2023-02-28T01:59:11;7.27;;;6.57;;
11522;SDS011;40093;43.224;27.910;2023-02-28T02:01:40;6.63;;;6.03;;
11522;SDS011;40093;43.224;27.910;2023-02-28T02:04:07;7.20;;;6.50;;
11522;SDS011;40093;43.224;27.910;2023-02-28T02:06:36;6.20;;;5.63;;
11522;SDS011;40093;43.224;27.910;2023-02-28T02:09:07;6.40;;;5.80;;
11522;SDS011;40093;43.224;27.910;2023-02-28T02:11:34;6.43;;;5.83;;
11522;SDS011;40093;43.224;27.910;2023-02-28T02:17:19;6.13;;;5.43;;
11522;SDS011;40093;43.224;27.910;2023-02-28T02:29:18;5.70;;;5.20;;
11522;SDS011;40093;43.224;27.910;2023-02-28T02:32:09;5.90;;;5.40;;
11522;SDS011;40093;43.224;27.910;2023-02-28T02:35:02;5.70;;;5.20;;
11522;SDS011;40093;43.224;27.910;2023-02-28T02:37:38;5.97;;;5.47;;
11522;SDS011;40093;43.224;27.910;2023-02-28T02:40:11;6.37;;;5.70;;
11522;SDS011;40093;43.224;27.910;2023-02-28T02:42:42;6.17;;;5.57;;
11522;SDS011;40093;43.224;27.910;2023-02-28T02:45:14;6.03;;;5.43;;
11522;SDS011;40093;43.224;27.910;2023-02-28T02:47:47;6.07;;;5.47;;
11522;SDS011;40093;43.224;27.910;2023-02-28T02:50:17;5.80;;;5.20;;
11522;SDS011;40093;43.224;27.910;2023-02-28T02:52:50;5.90;;;5.30;;
11522;SDS011;40093;43.224;27.910;2023-02-28T02:55:20;5.70;;;5.20;;
11522;SDS011;40093;43.224;27.910;2023-02-28T02:57:50;5.40;;;4.87;;
11522;SDS011;40093;43.224;27.910;2023-02-28T03:00:20;5.10;;;4.70;;
11522;SDS011;40093;43.224;27.910;2023-02-28T03:02:52;5.30;;;4.80;;
11522;SDS011;40093;43.224;27.910;2023-02-28T03:05:23;5.17;;;4.67;;
11522;SDS011;40093;43.224;27.910;2023-02-28T03:07:53;5.37;;;4.87;;
11522;SDS011;40093;43.224;27.910;2023-02-28T03:10:27;4.90;;;4.50;;
11522;SDS011;40093;43.224;27.910;2023-02-28T03:13:00;4.60;;;4.17;;
11522;SDS011;40093;43.224;27.910;2023-02-28T03:15:37;4.77;;;4.37;;
11522;SDS011;40093;43.224;27.910;2023-02-28T03:18:17;5.03;;;4.53;;
11522;SDS011;40093;43.224;27.910;2023-02-28T03:20:54;4.33;;;3.93;;
11522;SDS011;40093;43.224;27.910;2023-02-28T03:23:32;4.80;;;4.40;;
11522;SDS011;40093;43.224;27.910;2023-02-28T03:26:06;4.90;;;4.40;;
11522;SDS011;40093;43.224;27.910;2023-02-28T03:28:45;4.67;;;4.27;;
11522;SDS011;40093;43.224;27.910;2023-02-28T03:31:19;5.30;;;4.80;;
11522;SDS011;40093;43.224;27.910;2023-02-28T03:33:54;5.47;;;4.97;;
11522;SDS011;40093;43.224;27.910;2023-02-28T03:36:27;5.87;;;5.37;;
11522;SDS011;40093;43.224;27.910;2023-02-28T03:38:57;5.90;;;5.40;;
11522;SDS011;40093;43.224;27.910;2023-02-28T03:41:30;6.10;;;5.60;;
11522;SDS011;40093;43.224;27.910;2023-02-28T03:44:00;6.63;;;5.97;;
11522;SDS011;40093;43.224;27.910;2023-02-28T03:46:32;6.97;;;6.37;;
11522;SDS011;40093;43.224;27.910;2023-02-28T03:49:06;7.03;;;6.30;;
11522;SDS011;40093;43.224;27.910;2023-02-28T03:51:39;7.07;;;6.37;;
11522;SDS011;40093;43.224;27.910;2023-02-28T03:54:09;7.20;;;6.50;;
11522;SDS011;40093;43.224;27.910;2023-02-28T03:56:40;6.90;;;6.23;;
11522;SDS011;40093;43.224;27.910;2023-02-28T03:59:13;7.00;;;6.40;;
11522;SDS011;40093;43.224;27.910;2023-02-28T04:01:45;7.00;;;6.30;;
11522;SDS011;40093;43.224;27.910;2023-02-28T04:04:15;8.10;;;7.30;;
11522;SDS011;40093;43.224;27.910;2023-02-28T04:06:44;6.90;;;6.30;;
11522;SDS011;40093;43.224;27.910;2023-02-28T04:09:12;6.70;;;6.10;;
11522;SDS011;40093;43.224;27.910;2023-02-28T04:11:41;7.37;;;6.67;;
11522;SDS011;40093;43.224;27.910;2023-02-28T04:14:10;7.47;;;6.77;;
11522;SDS011;40093;43.224;27.910;2023-02-28T04:16:39;7.33;;;6.63;;
11522;SDS011;40093;43.224;27.910;2023-02-28T04:19:08;7.57;;;6.87;;
11522;SDS011;40093;43.224;27.910;2023-02-28T04:21:36;8.60;;;7.70;;
11522;SDS011;40093;43.224;27.910;2023-02-28T04:24:06;8.13;;;7.33;;
11522;SDS011;40093;43.224;27.910;2023-02-28T04:26:39;8.43;;;7.60;;
11522;SDS011;40093;43.224;27.910;2023-02-28T04:29:08;8.03;;;7.23;;
11522;SDS011;40093;43.224;27.910;2023-02-28T04:31:36;8.53;;;7.60;;
11522;SDS011;40093;43.224;27.910;2023-02-28T04:34:03;9.00;;;8.00;;
11522;SDS011;40093;43.224;27.910;2023-02-28T04:36:30;8.13;;;7.33;;
11522;SDS011;40093;43.224;27.910;2023-02-28T04:38:58;14.13;;;10.40;;
11522;SDS011;40093;43.224;27.910;2023-02-28T04:41:26;9.67;;;8.60;;
11522;SDS011;40093;43.224;27.910;2023-02-28T04:43:53;10.07;;;9.07;;
11522;SDS011;40093;43.224;27.910;2023-02-28T04:46:21;10.77;;;9.77;;
11522;SDS011;40093;43.224;27.910;2023-02-28T04:48:48;10.27;;;8.90;;
11522;SDS011;40093;43.224;27.910;2023-02-28T04:51:16;10.73;;;9.10;;
11522;SDS011;40093;43.224;27.910;2023-02-28T04:53:45;11.27;;;10.00;;
11522;SDS011;40093;43.224;27.910;2023-02-28T04:56:13;9.80;;;8.70;;
11522;SDS011;40093;43.224;27.910;2023-02-28T04:58:43;10.10;;;8.97;;
11522;SDS011;40093;43.224;27.910;2023-02-28T05:01:18;11.27;;;9.60;;
11522;SDS011;40093;43.224;27.910;2023-02-28T05:03:47;11.43;;;10.20;;
11522;SDS011;40093;43.224;27.910;2023-02-28T05:06:15;11.47;;;9.60;;
11522;SDS011;40093;43.224;27.910;2023-02-28T05:08:42;12.40;;;11.10;;
11522;SDS011;40093;43.224;27.910;2023-02-28T05:11:12;11.97;;;10.43;;
11522;SDS011;40093;43.224;27.910;2023-02-28T05:13:42;13.53;;;10.37;;
11522;SDS011;40093;43.224;27.910;2023-02-28T05:16:09;12.60;;;10.43;;
11522;SDS011;40093;43.224;27.910;2023-02-28T05:18:36;12.50;;;10.97;;
11522;SDS011;40093;43.224;27.910;2023-02-28T05:21:03;14.50;;;12.00;;
11522;SDS011;40093;43.224;27.910;2023-02-28T05:23:31;12.37;;;11.03;;
11522;SDS011;40093;43.224;27.910;2023-02-28T05:25:58;14.43;;;11.97;;
11522;SDS011;40093;43.224;27.910;2023-02-28T05:28:25;12.90;;;10.80;;
11522;SDS011;40093;43.224;27.910;2023-02-28T05:30:53;17.20;;;13.07;;
11522;SDS011;40093;43.224;27.910;2023-02-28T05:33:20;17.00;;;12.17;;
11522;SDS011;40093;43.224;27.910;2023-02-28T05:35:47;14.13;;;12.07;;
11522;SDS011;40093;43.224;27.910;2023-02-28T05:38:14;17.57;;;12.57;;
11522;SDS011;40093;43.224;27.910;2023-02-28T05:40:42;15.10;;;12.33;;
11522;SDS011;40093;43.224;27.910;2023-02-28T05:43:09;16.83;;;13.47;;
11522;SDS011;40093;43.224;27.910;2023-02-28T05:45:37;16.00;;;12.87;;
11522;SDS011;40093;43.224;27.910;2023-02-28T05:48:05;15.57;;;12.47;;
11522;SDS011;40093;43.224;27.910;2023-02-28T05:50:32;18.23;;;13.90;;
11522;SDS011;40093;43.224;27.910;2023-02-28T05:52:59;17.17;;;13.27;;
11522;SDS011;40093;43.224;27.910;2023-02-28T05:55:26;17.97;;;14.10;;
11522;SDS011;40093;43.224;27.910;2023-02-28T05:57:53;17.57;;;13.30;;
11522;SDS011;40093;43.224;27.910;2023-02-28T06:00:20;20.17;;;14.67;;
11522;SDS011;40093;43.224;27.910;2023-02-28T06:02:48;20.40;;;15.33;;
11522;SDS011;40093;43.224;27.910;2023-02-28T06:05:17;21.53;;;15.47;;
11522;SDS011;40093;43.224;27.910;2023-02-28T06:07:44;21.70;;;15.83;;
11522;SDS011;40093;43.224;27.910;2023-02-28T06:10:11;20.63;;;15.23;;
11522;SDS011;40093;43.224;27.910;2023-02-28T06:12:39;21.50;;;16.63;;
11522;SDS011;40093;43.224;27.910;2023-02-28T06:15:07;20.17;;;15.43;;
11522;SDS011;40093;43.224;27.910;2023-02-28T06:17:37;20.67;;;16.10;;
11522;SDS011;40093;43.224;27.910;2023-02-28T06:20:05;19.73;;;15.00;;
11522;SDS011;40093;43.224;27.910;2023-02-28T06:22:34;17.43;;;14.80;;
11522;SDS011;40093;43.224;27.910;2023-02-28T06:25:01;17.23;;;14.07;;
11522;SDS011;40093;43.224;27.910;2023-02-28T06:27:28;17.47;;;14.07;;
11522;SDS011;40093;43.224;27.910;2023-02-28T06:29:57;19.87;;;15.60;;
11522;SDS011;40093;43.224;27.910;2023-02-28T06:32:24;21.87;;;17.17;;
11522;SDS011;40093;43.224;27.910;2023-02-28T06:34:51;20.03;;;15.63;;
11522;SDS011;40093;43.224;27.910;2023-02-28T06:37:18;18.10;;;14.03;;
11522;SDS011;40093;43.224;27.910;2023-02-28T06:39:46;17.97;;;14.03;;
11522;SDS011;40093;43.224;27.910;2023-02-28T06:42:13;16.93;;;13.87;;
11522;SDS011;40093;43.224;27.910;2023-02-28T06:44:40;22.20;;;15.80;;
11522;SDS011;40093;43.224;27.910;2023-02-28T06:47:08;17.57;;;14.10;;
11522;SDS011;40093;43.224;27.910;2023-02-28T06:49:35;16.40;;;13.07;;
11522;SDS011;40093;43.224;27.910;2023-02-28T06:52:04;16.20;;;12.50;;
11522;SDS011;40093;43.224;27.910;2023-02-28T06:54:31;16.43;;;13.13;;
11522;SDS011;40093;43.224;27.910;2023-02-28T06:56:59;14.77;;;12.57;;
11522;SDS011;40093;43.224;27.910;2023-02-28T06:59:26;18.60;;;14.37;;
11522;SDS011;40093;43.224;27.910;2023-02-28T07:01:53;17.37;;;13.77;;
11522;SDS011;40093;43.224;27.910;2023-02-28T07:04:20;15.10;;;12.23;;
11522;SDS011;40093;43.224;27.910;2023-02-28T07:06:47;14.03;;;12.03;;
11522;SDS011;40093;43.224;27.910;2023-02-28T07:09:14;13.57;;;11.77;;
11522;SDS011;40093;43.224;27.910;2023-02-28T07:11:41;13.77;;;10.97;;
11522;SDS011;40093;43.224;27.910;2023-02-28T07:14:10;12.27;;;10.07;;
11522;SDS011;40093;43.224;27.910;2023-02-28T07:16:37;12.83;;;11.17;;
11522;SDS011;40093;43.224;27.910;2023-02-28T07:19:03;13.70;;;11.20;;
11522;SDS011;40093;43.224;27.910;2023-02-28T07:21:31;14.03;;;11.20;;
11522;SDS011;40093;43.224;27.910;2023-02-28T07:23:58;12.53;;;10.40;;
11522;SDS011;40093;43.224;27.910;2023-02-28T07:26:25;12.30;;;10.47;;
11522;SDS011;40093;43.224;27.910;2023-02-28T07:28:52;11.27;;;9.63;;
11522;SDS011;40093;43.224;27.910;2023-02-28T07:31:20;12.37;;;10.60;;
11522;SDS011;40093;43.224;27.910;2023-02-28T07:33:47;13.27;;;9.83;;
11522;SDS011;40093;43.224;27.910;2023-02-28T07:36:15;13.43;;;10.13;;
11522;SDS011;40093;43.224;27.910;2023-02-28T07:38:43;12.33;;;10.50;;
11522;SDS011;40093;43.224;27.910;2023-02-28T07:41:14;12.50;;;10.20;;
11522;SDS011;40093;43.224;27.910;2023-02-28T07:43:41;12.47;;;10.60;;
11522;SDS011;40093;43.224;27.910;2023-02-28T07:46:10;11.70;;;10.03;;
11522;SDS011;40093;43.224;27.910;2023-02-28T07:48:41;10.60;;;9.23;;
11522;SDS011;40093;43.224;27.910;2023-02-28T07:51:10;10.90;;;9.57;;
11522;SDS011;40093;43.224;27.910;2023-02-28T07:53:37;12.03;;;10.43;;
11522;SDS011;40093;43.224;27.910;2023-02-28T07:56:04;11.30;;;9.30;;
11522;SDS011;40093;43.224;27.910;2023-02-28T07:58:31;15.97;;;11.37;;
11522;SDS011;40093;43.224;27.910;2023-02-28T08:01:04;11.63;;;9.17;;
11522;SDS011;40093;43.224;27.910;2023-02-28T08:03:31;9.83;;;8.47;;
11522;SDS011;40093;43.224;27.910;2023-02-28T08:06:00;9.43;;;8.33;;
11522;SDS011;40093;43.224;27.910;2023-02-28T08:08:27;10.83;;;9.30;;
11522;SDS011;40093;43.224;27.910;2023-02-28T08:10:57;10.23;;;9.07;;
11522;SDS011;40093;43.224;27.910;2023-02-28T08:13:26;13.80;;;10.73;;
11522;SDS011;40093;43.224;27.910;2023-02-28T08:15:53;11.73;;;10.30;;
11522;SDS011;40093;43.224;27.910;2023-02-28T08:18:21;9.13;;;8.23;;
11522;SDS011;40093;43.224;27.910;2023-02-28T08:20:49;10.97;;;9.10;;
11522;SDS011;40093;43.224;27.910;2023-02-28T08:23:17;9.37;;;8.33;;
11522;SDS011;40093;43.224;27.910;2023-02-28T08:25:45;10.40;;;8.90;;
11522;SDS011;40093;43.224;27.910;2023-02-28T08:28:18;10.00;;;9.00;;
11522;SDS011;40093;43.224;27.910;2023-02-28T08:30:45;12.23;;;9.00;;
11522;SDS011;40093;43.224;27.910;2023-02-28T08:33:12;10.60;;;8.90;;
11522;SDS011;40093;43.224;27.910;2023-02-28T08:35:39;10.30;;;9.10;;
11522;SDS011;40093;43.224;27.910;2023-02-28T08:38:06;10.23;;;8.90;;
11522;SDS011;40093;43.224;27.910;2023-02-28T08:40:34;10.60;;;9.33;;
11522;SDS011;40093;43.224;27.910;2023-02-28T08:43:01;13.30;;;9.23;;
11522;SDS011;40093;43.224;27.910;2023-02-28T08:45:28;10.80;;;8.80;;
11522;SDS011;40093;43.224;27.910;2023-02-28T08:47:55;11.07;;;8.97;;
11522;SDS011;40093;43.224;27.910;2023-02-28T08:50:22;9.33;;;7.83;;
11522;SDS011;40093;43.224;27.910;2023-02-28T08:52:49;10.13;;;8.60;;
11522;SDS011;40093;43.224;27.910;2023-02-28T08:55:16;11.73;;;9.10;;
11522;SDS011;40093;43.224;27.910;2023-02-28T08:57:44;12.53;;;9.80;;
11522;SDS011;40093;43.224;27.910;2023-02-28T09:00:12;11.73;;;10.10;;
11522;SDS011;40093;43.224;27.910;2023-02-28T09:02:39;11.23;;;9.07;;
11522;SDS011;40093;43.224;27.910;2023-02-28T09:05:08;10.33;;;9.20;;
11522;SDS011;40093;43.224;27.910;2023-02-28T09:07:35;11.43;;;10.13;;
11522;SDS011;40093;43.224;27.910;2023-02-28T09:10:02;11.40;;;9.80;;
11522;SDS011;40093;43.224;27.910;2023-02-28T09:12:32;11.10;;;9.90;;
11522;SDS011;40093;43.224;27.910;2023-02-28T09:15:01;10.03;;;8.70;;
11522;SDS011;40093;43.224;27.910;2023-02-28T09:17:28;9.67;;;8.37;;
11522;SDS011;40093;43.224;27.910;2023-02-28T09:19:55;10.33;;;9.23;;
11522;SDS011;40093;43.224;27.910;2023-02-28T09:22:22;10.17;;;8.90;;
11522;SDS011;40093;43.224;27.910;2023-02-28T09:24:49;9.83;;;8.07;;
11522;SDS011;40093;43.224;27.910;2023-02-28T09:27:16;12.90;;;10.40;;
11522;SDS011;40093;43.224;27.910;2023-02-28T09:29:43;11.00;;;9.00;;
11522;SDS011;40093;43.224;27.910;2023-02-28T09:32:11;10.10;;;8.93;;
11522;SDS011;40093;43.224;27.910;2023-02-28T09:34:38;9.80;;;8.10;;
11522;SDS011;40093;43.224;27.910;2023-02-28T09:37:05;9.47;;;8.23;;
11522;SDS011;40093;43.224;27.910;2023-02-28T09:39:31;9.90;;;8.43;;
11522;SDS011;40093;43.224;27.910;2023-02-28T09:41:58;8.80;;;7.90;;
11522;SDS011;40093;43.224;27.910;2023-02-28T09:44:27;9.93;;;8.60;;
11522;SDS011;40093;43.224;27.910;2023-02-28T09:46:57;8.90;;;8.00;;
11522;SDS011;40093;43.224;27.910;2023-02-28T09:49:31;7.63;;;6.93;;
11522;SDS011;40093;43.224;27.910;2023-02-28T09:52:05;10.00;;;8.07;;
11522;SDS011;40093;43.224;27.910;2023-02-28T09:54:36;9.50;;;7.80;;
11522;SDS011;40093;43.224;27.910;2023-02-28T09:57:05;18.83;;;14.40;;
11522;SDS011;40093;43.224;27.910;2023-02-28T10:02:38;10.33;;;8.50;;
11522;SDS011;40093;43.224;27.910;2023-02-28T10:05:14;9.30;;;8.00;;
11522;SDS011;40093;43.224;27.910;2023-02-28T10:07:50;11.27;;;9.33;;
11522;SDS011;40093;43.224;27.910;2023-02-28T10:10:35;13.20;;;9.73;;
11522;SDS011;40093;43.224;27.910;2023-02-28T10:13:05;11.53;;;9.10;;
11522;SDS011;40093;43.224;27.910;2023-02-28T10:15:41;10.07;;;8.90;;
11522;SDS011;40093;43.224;27.910;2023-02-28T10:18:10;9.43;;;8.53;;
11522;SDS011;40093;43.224;27.910;2023-02-28T10:20:40;9.67;;;8.67;;
11522;SDS011;40093;43.224;27.910;2023-02-28T10:23:11;11.53;;;9.47;;
11522;SDS011;40093;43.224;27.910;2023-02-28T10:25:44;10.70;;;8.93;;
11522;SDS011;40093;43.224;27.910;2023-02-28T10:28:19;8.33;;;7.00;;
11522;SDS011;40093;43.224;27.910;2023-02-28T10:30:46;8.97;;;7.30;;
11522;SDS011;40093;43.224;27.910;2023-02-28T10:33:19;9.93;;;7.87;;
11522;SDS011;40093;43.224;27.910;2023-02-28T10:35:50;8.20;;;7.40;;
11522;SDS011;40093;43.224;27.910;2023-02-28T10:38:19;8.17;;;7.17;;
11522;SDS011;40093;43.224;27.910;2023-02-28T10:40:47;8.63;;;7.20;;
11522;SDS011;40093;43.224;27.910;2023-02-28T10:43:18;8.03;;;6.80;;
11522;SDS011;40093;43.224;27.910;2023-02-28T10:45:57;9.17;;;7.90;;
11522;SDS011;40093;43.224;27.910;2023-02-28T10:48:34;8.00;;;7.20;;
11522;SDS011;40093;43.224;27.910;2023-02-28T10:51:05;8.43;;;7.37;;
11522;SDS011;40093;43.224;27.910;2023-02-28T10:53:35;8.37;;;7.57;;
11522;SDS011;40093;43.224;27.910;2023-02-28T10:56:12;10.20;;;7.47;;
11522;SDS011;40093;43.224;27.910;2023-02-28T10:58:47;8.73;;;7.40;;
11522;SDS011;40093;43.224;27.910;2023-02-28T11:01:16;8.80;;;7.80;;
11522;SDS011;40093;43.224;27.910;2023-02-28T11:03:44;8.87;;;7.20;;
11522;SDS011;40093;43.224;27.910;2023-02-28T11:06:17;9.13;;;8.10;;
11522;SDS011;40093;43.224;27.910;2023-02-28T11:08:48;9.43;;;7.93;;
11522;SDS011;40093;43.224;27.910;2023-02-28T11:11:16;8.53;;;7.57;;
11522;SDS011;40093;43.224;27.910;2023-02-28T11:13:45;14.50;;;11.07;;
11522;SDS011;40093;43.224;27.910;2023-02-28T11:16:15;8.73;;;7.83;;
11522;SDS011;40093;43.224;27.910;2023-02-28T11:18:44;13.47;;;10.00;;
11522;SDS011;40093;43.224;27.910;2023-02-28T11:21:18;13.07;;;10.80;;
11522;SDS011;40093;43.224;27.910;2023-02-28T11:23:49;16.47;;;12.33;;
11522;SDS011;40093;43.224;27.910;2023-02-28T11:29:18;10.00;;;8.17;;
11522;SDS011;40093;43.224;27.910;2023-02-28T11:34:31;9.53;;;8.53;;
11522;SDS011;40093;43.224;27.910;2023-02-28T11:37:00;9.00;;;8.10;;
11522;SDS011;40093;43.224;27.910;2023-02-28T11:39:30;9.80;;;8.57;;
11522;SDS011;40093;43.224;27.910;2023-02-28T11:42:07;10.43;;;8.87;;
11522;SDS011;40093;43.224;27.910;2023-02-28T11:44:54;17.57;;;11.97;;
11522;SDS011;40093;43.224;27.910;2023-02-28T11:47:31;10.23;;;8.80;;
11522;SDS011;40093;43.224;27.910;2023-02-28T11:50:08;9.63;;;7.60;;
11522;SDS011;40093;43.224;27.910;2023-02-28T11:52:45;8.63;;;7.73;;
11522;SDS011;40093;43.224;27.910;2023-02-28T11:55:20;9.93;;;7.83;;
11522;SDS011;40093;43.224;27.910;2023-02-28T11:58:04;8.90;;;7.47;;
11522;SDS011;40093;43.224;27.910;2023-02-28T12:00:42;8.93;;;7.70;;
11522;SDS011;40093;43.224;27.910;2023-02-28T12:03:25;9.83;;;7.57;;
11522;SDS011;40093;43.224;27.910;2023-02-28T12:06:01;8.70;;;7.70;;
11522;SDS011;40093;43.224;27.910;2023-02-28T12:08:46;8.53;;;7.70;;
11522;SDS011;40093;43.224;27.910;2023-02-28T12:11:23;13.57;;;11.33;;
11522;SDS011;40093;43.224;27.910;2023-02-28T12:16:58;10.50;;;8.43;;
11522;SDS011;40093;43.224;27.910;2023-02-28T12:19:39;9.87;;;8.10;;
11522;SDS011;40093;43.224;27.910;2023-02-28T12:22:20;10.87;;;9.03;;
11522;SDS011;40093;43.224;27.910;2023-02-28T12:27:50;12.97;;;10.03;;
11522;SDS011;40093;43.224;27.910;2023-02-28T12:30:19;10.90;;;8.97;;
11522;SDS011;40093;43.224;27.910;2023-02-28T12:32:51;9.97;;;8.70;;
11522;SDS011;40093;43.224;27.910;2023-02-28T12:35:24;15.73;;;12.97;;
11522;SDS011;40093;43.224;27.910;2023-02-28T12:48:29;11.93;;;9.70;;
11522;SDS011;40093;43.224;27.910;2023-02-28T12:51:04;10.80;;;9.10;;
11522;SDS011;40093;43.224;27.910;2023-02-28T12:53:35;12.73;;;11.33;;
11522;SDS011;40093;43.224;27.910;2023-02-28T12:56:16;24.70;;;19.50;;
11522;SDS011;40093;43.224;27.910;2023-02-28T12:58:49;11.80;;;10.50;;
11522;SDS011;40093;43.224;27.910;2023-02-28T13:01:29;13.63;;;10.90;;
11522;SDS011;40093;43.224;27.910;2023-02-28T13:04:14;23.77;;;16.83;;
11522;SDS011;40093;43.224;27.910;2023-02-28T13:06:59;20.70;;;14.77;;
11522;SDS011;40093;43.224;27.910;2023-02-28T13:09:37;19.27;;;14.63;;
11522;SDS011;40093;43.224;27.910;2023-02-28T13:12:12;15.60;;;11.80;;
11522;SDS011;40093;43.224;27.910;2023-02-28T13:14:39;12.40;;;10.30;;
11522;SDS011;40093;43.224;27.910;2023-02-28T13:17:10;13.50;;;11.00;;
11522;SDS011;40093;43.224;27.910;2023-02-28T13:19:40;16.97;;;12.40;;
11522;SDS011;40093;43.224;27.910;2023-02-28T13:22:16;14.63;;;10.93;;
11522;SDS011;40093;43.224;27.910;2023-02-28T13:24:47;14.30;;;11.43;;
11522;SDS011;40093;43.224;27.910;2023-02-28T13:29:59;19.60;;;13.20;;
11522;SDS011;40093;43.224;27.910;2023-02-28T13:32:31;13.53;;;11.27;;
11522;SDS011;40093;43.224;27.910;2023-02-28T13:38:17;18.07;;;13.47;;
11522;SDS011;40093;43.224;27.910;2023-02-28T13:40:49;14.50;;;12.03;;
11522;SDS011;40093;43.224;27.910;2023-02-28T13:43:16;16.07;;;11.67;;
11522;SDS011;40093;43.224;27.910;2023-02-28T13:46:04;15.30;;;11.80;;
11522;SDS011;40093;43.224;27.910;2023-02-28T13:48:34;16.37;;;13.10;;
11522;SDS011;40093;43.224;27.910;2023-02-28T13:54:09;16.90;;;13.70;;
11522;SDS011;40093;43.224;27.910;2023-02-28T13:56:50;16.83;;;13.73;;
11522;SDS011;40093;43.224;27.910;2023-02-28T13:59:28;19.27;;;16.47;;
11522;SDS011;40093;43.224;27.910;2023-02-28T14:05:13;16.20;;;12.90;;
11522;SDS011;40093;43.224;27.910;2023-02-28T14:07:44;18.03;;;12.93;;
11522;SDS011;40093;43.224;27.910;2023-02-28T14:10:21;19.23;;;14.97;;
11522;SDS011;40093;43.224;27.910;2023-02-28T14:15:59;15.70;;;12.33;;
11522;SDS011;40093;43.224;27.910;2023-02-28T14:18:29;17.17;;;12.13;;
11522;SDS011;40093;43.224;27.910;2023-02-28T14:20:59;15.47;;;12.67;;
11522;SDS011;40093;43.224;27.910;2023-02-28T14:23:41;19.33;;;13.53;;
11522;SDS011;40093;43.224;27.910;2023-02-28T14:26:22;25.13;;;14.23;;
11522;SDS011;40093;43.224;27.910;2023-02-28T14:29:05;16.10;;;12.57;;
11522;SDS011;40093;43.224;27.910;2023-02-28T14:31:51;17.27;;;12.47;;
11522;SDS011;40093;43.224;27.910;2023-02-28T14:34:26;15.27;;;11.70;;
11522;SDS011;40093;43.224;27.910;2023-02-28T14:37:02;18.37;;;14.90;;
11522;SDS011;40093;43.224;27.910;2023-02-28T14:39:31;20.87;;;16.30;;
11522;SDS011;40093;43.224;27.910;2023-02-28T14:41:59;16.47;;;12.20;;
11522;SDS011;40093;43.224;27.910;2023-02-28T14:44:29;61.80;;;44.67;;
11522;SDS011;40093;43.224;27.910;2023-02-28T14:46:57;16.17;;;12.70;;
11522;SDS011;40093;43.224;27.910;2023-02-28T14:49:29;17.47;;;13.30;;
11522;SDS011;40093;43.224;27.910;2023-02-28T14:52:02;16.13;;;12.97;;
11522;SDS011;40093;43.224;27.910;2023-02-28T14:54:36;17.50;;;12.30;;
11522;SDS011;40093;43.224;27.910;2023-02-28T14:57:03;20.67;;;15.90;;
11522;SDS011;40093;43.224;27.910;2023-02-28T14:59:31;18.27;;;13.87;;
11522;SDS011;40093;43.224;27.910;2023-02-28T15:02:19;17.93;;;12.90;;
11522;SDS011;40093;43.224;27.910;2023-02-28T15:04:54;24.73;;;18.00;;
11522;SDS011;40093;43.224;27.910;2023-02-28T15:07:23;24.17;;;16.87;;
11522;SDS011;40093;43.224;27.910;2023-02-28T15:10:08;18.03;;;12.57;;
11522;SDS011;40093;43.224;27.910;2023-02-28T15:12:37;21.97;;;13.67;;
11522;SDS011;40093;43.224;27.910;2023-02-28T15:15:13;16.37;;;12.07;;
11522;SDS011;40093;43.224;27.910;2023-02-28T15:17:42;18.23;;;12.40;;
11522;SDS011;40093;43.224;27.910;2023-02-28T15:20:14;18.07;;;13.10;;
11522;SDS011;40093;43.224;27.910;2023-02-28T15:22:43;30.97;;;19.03;;
11522;SDS011;40093;43.224;27.910;2023-02-28T15:25:15;18.30;;;13.17;;
11522;SDS011;40093;43.224;27.910;2023-02-28T15:27:45;27.00;;;17.47;;
11522;SDS011;40093;43.224;27.910;2023-02-28T15:30:16;18.30;;;13.77;;
11522;SDS011;40093;43.224;27.910;2023-02-28T15:32:46;21.60;;;14.23;;